Terminal Aerodrome Forecast
Issued by NWS

Home | Current Version | Previous Version | Text Only | Print | Product List | Glossary On
Versions: 1 2 3 4 5 6 7 8 9 10 11 12
393
FTPA31 PHFO 130520
TAFHJR
TAF
PHJR 130520Z 1306/1406 VRB03KT P6SM FEW040
     FM132100 13008G15KT P6SM SCT045
     FM140400 VRB03KT P6SM FEW040=

USA.gov is the U.S. government's official web portal to all federal, state and local government web resources and services.